sensor_id;sensor_type;location;lat;lon;timestamp;temperature;humidity
70068;DHT22;57425;51.616;6.680;2024-03-22T00:01:45;12.90;78.30
70068;DHT22;57425;51.616;6.680;2024-03-22T00:04:12;12.80;78.30
70068;DHT22;57425;51.616;6.680;2024-03-22T00:06:38;12.80;78.30
70068;DHT22;57425;51.616;6.680;2024-03-22T00:09:05;12.80;78.30
70068;DHT22;57425;51.616;6.680;2024-03-22T00:11:30;12.90;78.30
70068;DHT22;57425;51.616;6.680;2024-03-22T00:13:56;12.80;78.30
70068;DHT22;57425;51.616;6.680;2024-03-22T00:16:22;12.80;78.30
70068;DHT22;57425;51.616;6.680;2024-03-22T00:18:47;12.80;78.30
70068;DHT22;57425;51.616;6.680;2024-03-22T00:21:13;12.80;78.30
70068;DHT22;57425;51.616;6.680;2024-03-22T00:23:38;12.80;78.90
70068;DHT22;57425;51.616;6.680;2024-03-22T00:26:04;12.80;78.40
70068;DHT22;57425;51.616;6.680;2024-03-22T00:28:30;12.80;78.40
70068;DHT22;57425;51.616;6.680;2024-03-22T00:30:55;12.80;78.40
70068;DHT22;57425;51.616;6.680;2024-03-22T00:33:21;12.80;78.40
70068;DHT22;57425;51.616;6.680;2024-03-22T00:35:47;12.80;78.40
70068;DHT22;57425;51.616;6.680;2024-03-22T00:38:12;12.80;78.40
70068;DHT22;57425;51.616;6.680;2024-03-22T00:40:38;12.80;78.40
70068;DHT22;57425;51.616;6.680;2024-03-22T00:43:04;12.80;78.40
70068;DHT22;57425;51.616;6.680;2024-03-22T00:45:29;12.80;78.40
70068;DHT22;57425;51.616;6.680;2024-03-22T00:47:55;12.80;78.40
70068;DHT22;57425;51.616;6.680;2024-03-22T00:50:20;12.80;78.40
70068;DHT22;57425;51.616;6.680;2024-03-22T00:52:46;12.80;78.40
70068;DHT22;57425;51.616;6.680;2024-03-22T00:55:12;12.80;78.40
70068;DHT22;57425;51.616;6.680;2024-03-22T00:57:37;12.80;78.40
70068;DHT22;57425;51.616;6.680;2024-03-22T01:00:03;12.80;79.00
70068;DHT22;57425;51.616;6.680;2024-03-22T01:02:30;12.80;78.40
70068;DHT22;57425;51.616;6.680;2024-03-22T01:04:55;12.70;78.40
70068;DHT22;57425;51.616;6.680;2024-03-22T01:07:21;12.80;78.40
70068;DHT22;57425;51.616;6.680;2024-03-22T01:09:46;12.80;78.40
70068;DHT22;57425;51.616;6.680;2024-03-22T01:12:12;12.80;78.40
70068;DHT22;57425;51.616;6.680;2024-03-22T01:14:37;12.70;78.40
70068;DHT22;57425;51.616;6.680;2024-03-22T01:17:03;12.80;78.40
70068;DHT22;57425;51.616;6.680;2024-03-22T01:19:29;12.70;78.40
70068;DHT22;57425;51.616;6.680;2024-03-22T01:21:54;12.80;78.40
70068;DHT22;57425;51.616;6.680;2024-03-22T01:24:20;12.70;78.40
70068;DHT22;57425;51.616;6.680;2024-03-22T01:26:45;12.70;78.40
70068;DHT22;57425;51.616;6.680;2024-03-22T01:29:11;12.70;78.40
70068;DHT22;57425;51.616;6.680;2024-03-22T01:31:37;12.70;78.40
70068;DHT22;57425;51.616;6.680;2024-03-22T01:34:02;12.70;78.40
70068;DHT22;57425;51.616;6.680;2024-03-22T01:36:28;12.70;78.40
70068;DHT22;57425;51.616;6.680;2024-03-22T01:38:53;12.70;78.40
70068;DHT22;57425;51.616;6.680;2024-03-22T01:41:19;12.70;78.40
70068;DHT22;57425;51.616;6.680;2024-03-22T01:43:44;12.70;78.40
70068;DHT22;57425;51.616;6.680;2024-03-22T01:46:10;12.70;78.40
70068;DHT22;57425;51.616;6.680;2024-03-22T01:48:36;12.70;78.40
70068;DHT22;57425;51.616;6.680;2024-03-22T01:51:02;12.70;78.40
70068;DHT22;57425;51.616;6.680;2024-03-22T01:53:29;12.70;78.40
70068;DHT22;57425;51.616;6.680;2024-03-22T01:55:55;12.70;78.40
70068;DHT22;57425;51.616;6.680;2024-03-22T01:58:21;12.70;78.40
70068;DHT22;57425;51.616;6.680;2024-03-22T02:00:47;12.70;78.40
70068;DHT22;57425;51.616;6.680;2024-03-22T02:03:14;12.70;78.50
70068;DHT22;57425;51.616;6.680;2024-03-22T02:05:39;12.70;78.40
70068;DHT22;57425;51.616;6.680;2024-03-22T02:08:05;12.70;78.40
70068;DHT22;57425;51.616;6.680;2024-03-22T02:10:31;12.70;78.40
70068;DHT22;57425;51.616;6.680;2024-03-22T02:12:57;12.70;78.50
70068;DHT22;57425;51.616;6.680;2024-03-22T02:15:24;12.70;78.40
70068;DHT22;57425;51.616;6.680;2024-03-22T02:17:49;12.70;78.50
70068;DHT22;57425;51.616;6.680;2024-03-22T02:20:15;12.70;78.40
70068;DHT22;57425;51.616;6.680;2024-03-22T02:22:41;12.70;78.40
70068;DHT22;57425;51.616;6.680;2024-03-22T02:25:07;12.60;78.40
70068;DHT22;57425;51.616;6.680;2024-03-22T02:27:33;12.70;78.50
70068;DHT22;57425;51.616;6.680;2024-03-22T02:29:59;12.70;78.50
70068;DHT22;57425;51.616;6.680;2024-03-22T02:32:25;12.70;78.50
70068;DHT22;57425;51.616;6.680;2024-03-22T02:34:50;12.70;78.50
70068;DHT22;57425;51.616;6.680;2024-03-22T02:37:16;12.70;78.50
70068;DHT22;57425;51.616;6.680;2024-03-22T02:39:41;12.70;78.50
70068;DHT22;57425;51.616;6.680;2024-03-22T02:42:08;12.70;78.50
70068;DHT22;57425;51.616;6.680;2024-03-22T02:44:34;12.70;78.50
70068;DHT22;57425;51.616;6.680;2024-03-22T02:46:59;12.70;78.50
70068;DHT22;57425;51.616;6.680;2024-03-22T02:49:25;12.70;78.50
70068;DHT22;57425;51.616;6.680;2024-03-22T02:51:51;12.70;78.50
70068;DHT22;57425;51.616;6.680;2024-03-22T02:54:16;12.70;78.50
70068;DHT22;57425;51.616;6.680;2024-03-22T02:56:42;12.70;78.50
70068;DHT22;57425;51.616;6.680;2024-03-22T02:59:08;12.70;78.50
70068;DHT22;57425;51.616;6.680;2024-03-22T03:01:33;12.60;78.50
70068;DHT22;57425;51.616;6.680;2024-03-22T03:03:59;12.60;78.50
70068;DHT22;57425;51.616;6.680;2024-03-22T03:06:24;12.70;78.60
70068;DHT22;57425;51.616;6.680;2024-03-22T03:08:50;12.60;78.60
70068;DHT22;57425;51.616;6.680;2024-03-22T03:11:16;12.60;78.60
70068;DHT22;57425;51.616;6.680;2024-03-22T03:13:41;12.60;78.60
70068;DHT22;57425;51.616;6.680;2024-03-22T03:16:07;12.60;78.60
70068;DHT22;57425;51.616;6.680;2024-03-22T03:18:32;12.60;78.60
70068;DHT22;57425;51.616;6.680;2024-03-22T03:20:58;12.60;78.60
70068;DHT22;57425;51.616;6.680;2024-03-22T03:23:24;12.60;78.60
70068;DHT22;57425;51.616;6.680;2024-03-22T03:25:49;12.60;78.60
70068;DHT22;57425;51.616;6.680;2024-03-22T03:28:15;12.60;78.70
70068;DHT22;57425;51.616;6.680;2024-03-22T03:30:41;12.60;78.60
70068;DHT22;57425;51.616;6.680;2024-03-22T03:33:07;12.60;78.60
70068;DHT22;57425;51.616;6.680;2024-03-22T03:35:33;12.60;78.70
70068;DHT22;57425;51.616;6.680;2024-03-22T03:37:59;12.60;78.70
70068;DHT22;57425;51.616;6.680;2024-03-22T03:40:24;12.60;78.70
70068;DHT22;57425;51.616;6.680;2024-03-22T03:42:53;12.60;78.70
70068;DHT22;57425;51.616;6.680;2024-03-22T03:45:19;12.60;78.70
70068;DHT22;57425;51.616;6.680;2024-03-22T03:47:45;12.60;78.70
70068;DHT22;57425;51.616;6.680;2024-03-22T03:50:11;12.60;78.70
70068;DHT22;57425;51.616;6.680;2024-03-22T03:52:37;12.60;78.70
70068;DHT22;57425;51.616;6.680;2024-03-22T03:55:03;12.60;78.80
70068;DHT22;57425;51.616;6.680;2024-03-22T03:57:29;12.60;78.80
70068;DHT22;57425;51.616;6.680;2024-03-22T03:59:55;12.60;78.80
70068;DHT22;57425;51.616;6.680;2024-03-22T04:02:20;12.60;78.80
70068;DHT22;57425;51.616;6.680;2024-03-22T04:04:46;12.60;78.80
70068;DHT22;57425;51.616;6.680;2024-03-22T04:07:12;12.60;78.80
70068;DHT22;57425;51.616;6.680;2024-03-22T04:09:37;12.50;78.80
70068;DHT22;57425;51.616;6.680;2024-03-22T04:12:03;12.50;78.80
70068;DHT22;57425;51.616;6.680;2024-03-22T04:14:29;12.60;78.90
70068;DHT22;57425;51.616;6.680;2024-03-22T04:16:55;12.60;78.90
70068;DHT22;57425;51.616;6.680;2024-03-22T04:19:21;12.60;78.90
70068;DHT22;57425;51.616;6.680;2024-03-22T04:21:49;12.60;78.90
70068;DHT22;57425;51.616;6.680;2024-03-22T04:24:15;12.50;78.90
70068;DHT22;57425;51.616;6.680;2024-03-22T04:26:40;12.50;78.90
70068;DHT22;57425;51.616;6.680;2024-03-22T04:29:06;12.50;78.90
70068;DHT22;57425;51.616;6.680;2024-03-22T04:31:31;12.50;78.90
70068;DHT22;57425;51.616;6.680;2024-03-22T04:33:57;12.50;78.90
70068;DHT22;57425;51.616;6.680;2024-03-22T04:36:23;12.50;78.90
70068;DHT22;57425;51.616;6.680;2024-03-22T04:38:48;12.50;78.90
70068;DHT22;57425;51.616;6.680;2024-03-22T04:41:14;12.50;78.90
70068;DHT22;57425;51.616;6.680;2024-03-22T04:43:39;12.50;78.90
70068;DHT22;57425;51.616;6.680;2024-03-22T04:46:05;12.50;79.00
70068;DHT22;57425;51.616;6.680;2024-03-22T04:48:31;12.50;79.00
70068;DHT22;57425;51.616;6.680;2024-03-22T04:50:56;12.50;78.90
70068;DHT22;57425;51.616;6.680;2024-03-22T04:53:22;12.50;79.00
70068;DHT22;57425;51.616;6.680;2024-03-22T04:55:48;12.50;79.00
70068;DHT22;57425;51.616;6.680;2024-03-22T04:58:17;12.50;79.00
70068;DHT22;57425;51.616;6.680;2024-03-22T05:00:44;12.50;79.00
70068;DHT22;57425;51.616;6.680;2024-03-22T05:03:11;12.50;79.00
70068;DHT22;57425;51.616;6.680;2024-03-22T05:05:38;12.50;79.00
70068;DHT22;57425;51.616;6.680;2024-03-22T05:08:04;12.50;79.50
70068;DHT22;57425;51.616;6.680;2024-03-22T05:10:30;12.40;78.90
70068;DHT22;57425;51.616;6.680;2024-03-22T05:12:57;12.50;79.00
70068;DHT22;57425;51.616;6.680;2024-03-22T05:15:23;12.50;79.00
70068;DHT22;57425;51.616;6.680;2024-03-22T05:17:51;12.50;79.00
70068;DHT22;57425;51.616;6.680;2024-03-22T05:20:17;12.50;79.00
70068;DHT22;57425;51.616;6.680;2024-03-22T05:22:43;12.50;79.10
70068;DHT22;57425;51.616;6.680;2024-03-22T05:25:09;12.50;79.10
70068;DHT22;57425;51.616;6.680;2024-03-22T05:27:35;12.50;79.10
70068;DHT22;57425;51.616;6.680;2024-03-22T05:30:01;12.50;79.10
70068;DHT22;57425;51.616;6.680;2024-03-22T05:32:27;12.50;79.10
70068;DHT22;57425;51.616;6.680;2024-03-22T05:34:53;12.50;79.10
70068;DHT22;57425;51.616;6.680;2024-03-22T05:37:19;12.50;79.10
70068;DHT22;57425;51.616;6.680;2024-03-22T05:39:44;12.40;79.00
70068;DHT22;57425;51.616;6.680;2024-03-22T05:42:10;12.50;79.10
70068;DHT22;57425;51.616;6.680;2024-03-22T05:44:35;12.40;79.00
70068;DHT22;57425;51.616;6.680;2024-03-22T05:47:01;12.50;79.10
70068;DHT22;57425;51.616;6.680;2024-03-22T05:49:27;12.50;79.10
70068;DHT22;57425;51.616;6.680;2024-03-22T05:51:53;12.50;79.10
70068;DHT22;57425;51.616;6.680;2024-03-22T05:54:18;12.40;79.00
70068;DHT22;57425;51.616;6.680;2024-03-22T05:56:45;12.50;79.10
70068;DHT22;57425;51.616;6.680;2024-03-22T05:59:11;12.40;79.00
70068;DHT22;57425;51.616;6.680;2024-03-22T06:01:36;12.40;79.00
70068;DHT22;57425;51.616;6.680;2024-03-22T06:04:04;12.40;79.00
70068;DHT22;57425;51.616;6.680;2024-03-22T06:06:29;12.40;79.00
70068;DHT22;57425;51.616;6.680;2024-03-22T06:08:55;12.40;79.00
70068;DHT22;57425;51.616;6.680;2024-03-22T06:11:22;12.40;79.00
70068;DHT22;57425;51.616;6.680;2024-03-22T06:13:48;12.50;79.60
70068;DHT22;57425;51.616;6.680;2024-03-22T06:16:14;12.50;79.10
70068;DHT22;57425;51.616;6.680;2024-03-22T06:18:40;12.50;79.10
70068;DHT22;57425;51.616;6.680;2024-03-22T06:21:06;12.40;79.00
70068;DHT22;57425;51.616;6.680;2024-03-22T06:23:32;12.40;79.00
70068;DHT22;57425;51.616;6.680;2024-03-22T06:25:58;12.40;79.00
70068;DHT22;57425;51.616;6.680;2024-03-22T06:28:26;12.40;79.00
70068;DHT22;57425;51.616;6.680;2024-03-22T06:30:53;12.40;79.00
70068;DHT22;57425;51.616;6.680;2024-03-22T06:33:20;12.40;79.00
70068;DHT22;57425;51.616;6.680;2024-03-22T06:35:47;12.50;79.10
70068;DHT22;57425;51.616;6.680;2024-03-22T06:38:13;12.50;79.10
70068;DHT22;57425;51.616;6.680;2024-03-22T06:40:39;12.50;79.10
70068;DHT22;57425;51.616;6.680;2024-03-22T06:43:04;12.40;79.00
70068;DHT22;57425;51.616;6.680;2024-03-22T06:45:31;12.40;79.10
70068;DHT22;57425;51.616;6.680;2024-03-22T06:47:56;12.50;79.10
70068;DHT22;57425;51.616;6.680;2024-03-22T06:50:22;12.40;79.60
70068;DHT22;57425;51.616;6.680;2024-03-22T06:52:51;12.40;79.10
70068;DHT22;57425;51.616;6.680;2024-03-22T06:55:19;12.50;79.20
70068;DHT22;57425;51.616;6.680;2024-03-22T06:57:47;12.40;79.10
70068;DHT22;57425;51.616;6.680;2024-03-22T07:00:13;12.50;79.20
70068;DHT22;57425;51.616;6.680;2024-03-22T07:02:39;12.40;79.20
70068;DHT22;57425;51.616;6.680;2024-03-22T07:05:06;12.40;79.20
70068;DHT22;57425;51.616;6.680;2024-03-22T07:07:33;12.50;79.20
70068;DHT22;57425;51.616;6.680;2024-03-22T07:09:59;12.50;79.20
70068;DHT22;57425;51.616;6.680;2024-03-22T07:12:24;12.50;79.20
70068;DHT22;57425;51.616;6.680;2024-03-22T07:14:50;12.40;79.20
70068;DHT22;57425;51.616;6.680;2024-03-22T07:17:17;12.50;79.30
70068;DHT22;57425;51.616;6.680;2024-03-22T07:19:42;12.50;79.20
70068;DHT22;57425;51.616;6.680;2024-03-22T07:22:09;12.50;79.20
70068;DHT22;57425;51.616;6.680;2024-03-22T07:24:34;12.50;79.30
70068;DHT22;57425;51.616;6.680;2024-03-22T07:27:00;12.50;79.30
70068;DHT22;57425;51.616;6.680;2024-03-22T07:29:26;12.50;79.30
70068;DHT22;57425;51.616;6.680;2024-03-22T07:31:51;12.50;79.30
70068;DHT22;57425;51.616;6.680;2024-03-22T07:34:18;12.50;79.30
70068;DHT22;57425;51.616;6.680;2024-03-22T07:36:44;12.50;79.30
70068;DHT22;57425;51.616;6.680;2024-03-22T07:39:10;12.50;79.30
70068;DHT22;57425;51.616;6.680;2024-03-22T07:41:36;12.50;79.30
70068;DHT22;57425;51.616;6.680;2024-03-22T07:44:02;12.50;79.30
70068;DHT22;57425;51.616;6.680;2024-03-22T07:46:28;12.50;79.30
70068;DHT22;57425;51.616;6.680;2024-03-22T07:48:54;12.50;79.90
70068;DHT22;57425;51.616;6.680;2024-03-22T07:51:20;12.50;79.30
70068;DHT22;57425;51.616;6.680;2024-03-22T07:53:46;12.50;79.30
70068;DHT22;57425;51.616;6.680;2024-03-22T07:56:12;12.50;79.30
70068;DHT22;57425;51.616;6.680;2024-03-22T07:58:39;12.50;79.40
70068;DHT22;57425;51.616;6.680;2024-03-22T08:01:04;12.50;79.40
70068;DHT22;57425;51.616;6.680;2024-03-22T08:03:30;12.50;79.40
70068;DHT22;57425;51.616;6.680;2024-03-22T08:05:56;12.50;79.30
70068;DHT22;57425;51.616;6.680;2024-03-22T08:08:22;12.50;79.30
70068;DHT22;57425;51.616;6.680;2024-03-22T08:10:47;12.60;79.40
70068;DHT22;57425;51.616;6.680;2024-03-22T08:13:13;12.60;79.40
70068;DHT22;57425;51.616;6.680;2024-03-22T08:15:39;12.60;79.40
70068;DHT22;57425;51.616;6.680;2024-03-22T08:18:05;12.60;79.40
70068;DHT22;57425;51.616;6.680;2024-03-22T08:20:31;12.50;79.30
70068;DHT22;57425;51.616;6.680;2024-03-22T08:22:59;12.60;79.40
70068;DHT22;57425;51.616;6.680;2024-03-22T08:25:25;12.60;79.40
70068;DHT22;57425;51.616;6.680;2024-03-22T08:27:50;12.60;79.40
70068;DHT22;57425;51.616;6.680;2024-03-22T08:30:20;12.60;79.40
70068;DHT22;57425;51.616;6.680;2024-03-22T08:32:47;12.70;79.40
70068;DHT22;57425;51.616;6.680;2024-03-22T08:35:13;12.60;79.30
70068;DHT22;57425;51.616;6.680;2024-03-22T08:37:39;12.60;79.30
70068;DHT22;57425;51.616;6.680;2024-03-22T08:40:05;12.60;79.30
70068;DHT22;57425;51.616;6.680;2024-03-22T08:42:30;12.70;79.40
70068;DHT22;57425;51.616;6.680;2024-03-22T08:44:56;12.70;79.40
70068;DHT22;57425;51.616;6.680;2024-03-22T08:47:22;12.70;79.30
70068;DHT22;57425;51.616;6.680;2024-03-22T08:49:48;12.60;79.30
70068;DHT22;57425;51.616;6.680;2024-03-22T08:52:15;12.70;79.30
70068;DHT22;57425;51.616;6.680;2024-03-22T08:54:40;12.70;79.40
70068;DHT22;57425;51.616;6.680;2024-03-22T08:57:06;12.70;79.30
70068;DHT22;57425;51.616;6.680;2024-03-22T08:59:32;12.70;79.40
70068;DHT22;57425;51.616;6.680;2024-03-22T09:01:59;12.70;79.30
70068;DHT22;57425;51.616;6.680;2024-03-22T09:04:25;12.70;79.40
70068;DHT22;57425;51.616;6.680;2024-03-22T09:06:51;12.70;79.40
70068;DHT22;57425;51.616;6.680;2024-03-22T09:09:16;12.80;79.40
70068;DHT22;57425;51.616;6.680;2024-03-22T09:11:42;12.70;79.40
70068;DHT22;57425;51.616;6.680;2024-03-22T09:14:08;12.80;79.40
70068;DHT22;57425;51.616;6.680;2024-03-22T09:16:34;12.80;79.40
70068;DHT22;57425;51.616;6.680;2024-03-22T09:18:59;12.80;79.40
70068;DHT22;57425;51.616;6.680;2024-03-22T09:21:25;12.80;79.50
70068;DHT22;57425;51.616;6.680;2024-03-22T09:23:51;12.80;79.40
70068;DHT22;57425;51.616;6.680;2024-03-22T09:26:17;12.80;79.40
70068;DHT22;57425;51.616;6.680;2024-03-22T09:28:45;12.80;79.50
70068;DHT22;57425;51.616;6.680;2024-03-22T09:31:11;12.80;79.40
70068;DHT22;57425;51.616;6.680;2024-03-22T09:33:36;12.80;79.40
70068;DHT22;57425;51.616;6.680;2024-03-22T09:36:03;12.80;79.40
70068;DHT22;57425;51.616;6.680;2024-03-22T09:38:28;12.80;79.40
70068;DHT22;57425;51.616;6.680;2024-03-22T09:40:54;12.80;79.40
70068;DHT22;57425;51.616;6.680;2024-03-22T09:43:23;12.90;79.50
70068;DHT22;57425;51.616;6.680;2024-03-22T09:45:51;12.90;79.50
70068;DHT22;57425;51.616;6.680;2024-03-22T09:48:18;12.90;79.50
70068;DHT22;57425;51.616;6.680;2024-03-22T09:50:47;12.90;79.50
70068;DHT22;57425;51.616;6.680;2024-03-22T09:53:18;12.90;79.50
70068;DHT22;57425;51.616;6.680;2024-03-22T09:55:49;12.90;79.50
70068;DHT22;57425;51.616;6.680;2024-03-22T09:58:15;12.90;79.50
70068;DHT22;57425;51.616;6.680;2024-03-22T10:00:44;12.90;79.50
70068;DHT22;57425;51.616;6.680;2024-03-22T10:03:10;12.90;79.50
70068;DHT22;57425;51.616;6.680;2024-03-22T10:05:36;13.00;79.60
70068;DHT22;57425;51.616;6.680;2024-03-22T10:08:05;13.00;79.60
70068;DHT22;57425;51.616;6.680;2024-03-22T10:10:33;13.00;79.60
70068;DHT22;57425;51.616;6.680;2024-03-22T10:13:03;13.00;79.60
70068;DHT22;57425;51.616;6.680;2024-03-22T10:15:32;13.00;79.60
70068;DHT22;57425;51.616;6.680;2024-03-22T10:17:57;13.00;79.60
70068;DHT22;57425;51.616;6.680;2024-03-22T10:20:24;13.00;79.60
70068;DHT22;57425;51.616;6.680;2024-03-22T10:22:55;13.00;80.10
70068;DHT22;57425;51.616;6.680;2024-03-22T10:25:22;13.00;79.50
70068;DHT22;57425;51.616;6.680;2024-03-22T10:27:48;13.00;79.60
70068;DHT22;57425;51.616;6.680;2024-03-22T10:30:16;13.00;79.60
70068;DHT22;57425;51.616;6.680;2024-03-22T10:32:43;13.00;79.60
70068;DHT22;57425;51.616;6.680;2024-03-22T10:35:12;13.00;79.60
70068;DHT22;57425;51.616;6.680;2024-03-22T10:37:39;13.10;79.60
70068;DHT22;57425;51.616;6.680;2024-03-22T10:40:05;13.00;79.60
70068;DHT22;57425;51.616;6.680;2024-03-22T10:42:38;13.10;80.20
70068;DHT22;57425;51.616;6.680;2024-03-22T10:45:05;13.00;79.60
70068;DHT22;57425;51.616;6.680;2024-03-22T10:47:34;13.10;79.60
70068;DHT22;57425;51.616;6.680;2024-03-22T10:50:06;13.10;79.70
70068;DHT22;57425;51.616;6.680;2024-03-22T10:52:54;13.10;79.60
70068;DHT22;57425;51.616;6.680;2024-03-22T10:55:43;13.10;80.10
70068;DHT22;57425;51.616;6.680;2024-03-22T10:58:24;13.10;79.90
70068;DHT22;57425;51.616;6.680;2024-03-22T11:00:54;13.10;79.60
70068;DHT22;57425;51.616;6.680;2024-03-22T11:03:24;13.10;79.60
70068;DHT22;57425;51.616;6.680;2024-03-22T11:05:54;13.10;79.60
70068;DHT22;57425;51.616;6.680;2024-03-22T11:08:29;13.10;79.60
70068;DHT22;57425;51.616;6.680;2024-03-22T11:10:56;13.10;79.60
70068;DHT22;57425;51.616;6.680;2024-03-22T11:13:22;13.10;79.60
70068;DHT22;57425;51.616;6.680;2024-03-22T11:15:51;13.20;79.70
70068;DHT22;57425;51.616;6.680;2024-03-22T11:18:18;13.20;79.70
70068;DHT22;57425;51.616;6.680;2024-03-22T11:20:43;13.20;80.20
70068;DHT22;57425;51.616;6.680;2024-03-22T11:23:10;13.20;79.70
70068;DHT22;57425;51.616;6.680;2024-03-22T11:25:36;13.20;79.70
70068;DHT22;57425;51.616;6.680;2024-03-22T11:28:02;13.20;79.70
70068;DHT22;57425;51.616;6.680;2024-03-22T11:30:32;13.20;79.70
70068;DHT22;57425;51.616;6.680;2024-03-22T11:33:02;13.20;80.00
70068;DHT22;57425;51.616;6.680;2024-03-22T11:35:28;13.20;79.70
70068;DHT22;57425;51.616;6.680;2024-03-22T11:37:54;13.20;79.70
70068;DHT22;57425;51.616;6.680;2024-03-22T11:40:19;13.20;79.70
70068;DHT22;57425;51.616;6.680;2024-03-22T11:42:48;13.20;79.70
70068;DHT22;57425;51.616;6.680;2024-03-22T11:45:17;13.20;79.70
70068;DHT22;57425;51.616;6.680;2024-03-22T11:47:44;13.20;79.70
70068;DHT22;57425;51.616;6.680;2024-03-22T11:50:11;13.20;79.70
70068;DHT22;57425;51.616;6.680;2024-03-22T11:52:43;13.20;79.70
70068;DHT22;57425;51.616;6.680;2024-03-22T11:55:12;13.20;79.70
70068;DHT22;57425;51.616;6.680;2024-03-22T11:57:38;13.20;79.70
70068;DHT22;57425;51.616;6.680;2024-03-22T12:00:04;13.20;79.60
70068;DHT22;57425;51.616;6.680;2024-03-22T12:02:38;13.20;79.60
70068;DHT22;57425;51.616;6.680;2024-03-22T12:05:05;13.20;79.70
70068;DHT22;57425;51.616;6.680;2024-03-22T12:07:31;13.30;79.70
70068;DHT22;57425;51.616;6.680;2024-03-22T12:09:57;13.30;79.70
70068;DHT22;57425;51.616;6.680;2024-03-22T12:12:23;13.30;79.70
70068;DHT22;57425;51.616;6.680;2024-03-22T12:14:49;13.30;79.70
70068;DHT22;57425;51.616;6.680;2024-03-22T12:17:17;13.30;79.70
70068;DHT22;57425;51.616;6.680;2024-03-22T12:19:43;13.30;79.70
70068;DHT22;57425;51.616;6.680;2024-03-22T12:22:09;13.30;79.70
70068;DHT22;57425;51.616;6.680;2024-03-22T12:24:35;13.30;79.70
70068;DHT22;57425;51.616;6.680;2024-03-22T12:27:01;13.30;79.70
70068;DHT22;57425;51.616;6.680;2024-03-22T12:29:26;13.30;79.70
70068;DHT22;57425;51.616;6.680;2024-03-22T12:31:52;13.30;79.70
70068;DHT22;57425;51.616;6.680;2024-03-22T12:34:18;13.30;79.70
70068;DHT22;57425;51.616;6.680;2024-03-22T12:36:43;13.30;79.70
70068;DHT22;57425;51.616;6.680;2024-03-22T12:39:09;13.30;79.70
70068;DHT22;57425;51.616;6.680;2024-03-22T12:41:35;13.30;79.70
70068;DHT22;57425;51.616;6.680;2024-03-22T12:44:01;13.30;79.70
70068;DHT22;57425;51.616;6.680;2024-03-22T12:46:26;13.30;79.70
70068;DHT22;57425;51.616;6.680;2024-03-22T12:48:53;13.30;79.70
70068;DHT22;57425;51.616;6.680;2024-03-22T12:51:18;13.30;79.60
70068;DHT22;57425;51.616;6.680;2024-03-22T12:53:44;13.30;79.60
70068;DHT22;57425;51.616;6.680;2024-03-22T12:56:11;13.30;79.60
70068;DHT22;57425;51.616;6.680;2024-03-22T12:58:38;13.30;79.60
70068;DHT22;57425;51.616;6.680;2024-03-22T13:01:05;13.30;80.20
70068;DHT22;57425;51.616;6.680;2024-03-22T13:03:32;13.30;79.60
70068;DHT22;57425;51.616;6.680;2024-03-22T13:05:58;13.30;79.70
70068;DHT22;57425;51.616;6.680;2024-03-22T13:08:24;13.30;80.20
70068;DHT22;57425;51.616;6.680;2024-03-22T13:10:49;13.30;79.70
70068;DHT22;57425;51.616;6.680;2024-03-22T13:13:15;13.30;79.60
70068;DHT22;57425;51.616;6.680;2024-03-22T13:15:42;13.30;79.70
70068;DHT22;57425;51.616;6.680;2024-03-22T13:18:07;13.30;79.70
70068;DHT22;57425;51.616;6.680;2024-03-22T13:20:35;13.40;79.70
70068;DHT22;57425;51.616;6.680;2024-03-22T13:23:01;13.30;79.70
70068;DHT22;57425;51.616;6.680;2024-03-22T13:25:27;13.30;79.70
70068;DHT22;57425;51.616;6.680;2024-03-22T13:27:52;13.30;79.60
70068;DHT22;57425;51.616;6.680;2024-03-22T13:30:18;13.30;79.70
70068;DHT22;57425;51.616;6.680;2024-03-22T13:32:44;13.40;80.30
70068;DHT22;57425;51.616;6.680;2024-03-22T13:35:12;13.30;79.60
70068;DHT22;57425;51.616;6.680;2024-03-22T13:37:37;13.40;79.80
70068;DHT22;57425;51.616;6.680;2024-03-22T13:40:03;13.40;79.70
70068;DHT22;57425;51.616;6.680;2024-03-22T13:42:29;13.30;79.70
70068;DHT22;57425;51.616;6.680;2024-03-22T13:44:58;13.40;79.70
70068;DHT22;57425;51.616;6.680;2024-03-22T13:47:25;13.40;79.70
70068;DHT22;57425;51.616;6.680;2024-03-22T13:49:52;13.40;79.70
70068;DHT22;57425;51.616;6.680;2024-03-22T13:52:18;13.40;79.70
70068;DHT22;57425;51.616;6.680;2024-03-22T13:54:43;13.40;79.70
70068;DHT22;57425;51.616;6.680;2024-03-22T13:57:10;13.40;79.70
70068;DHT22;57425;51.616;6.680;2024-03-22T13:59:36;13.40;79.70
70068;DHT22;57425;51.616;6.680;2024-03-22T14:02:03;13.40;79.70
70068;DHT22;57425;51.616;6.680;2024-03-22T14:04:29;13.40;79.70
70068;DHT22;57425;51.616;6.680;2024-03-22T14:06:54;13.40;79.70
70068;DHT22;57425;51.616;6.680;2024-03-22T14:09:20;13.40;79.80
70068;DHT22;57425;51.616;6.680;2024-03-22T14:11:47;13.40;79.70
70068;DHT22;57425;51.616;6.680;2024-03-22T14:14:14;13.40;79.70
70068;DHT22;57425;51.616;6.680;2024-03-22T14:16:41;13.40;79.70
70068;DHT22;57425;51.616;6.680;2024-03-22T14:19:09;13.40;80.20
70068;DHT22;57425;51.616;6.680;2024-03-22T14:21:35;13.40;80.20
70068;DHT22;57425;51.616;6.680;2024-03-22T14:24:01;13.40;79.70
70068;DHT22;57425;51.616;6.680;2024-03-22T14:26:28;13.40;79.70
70068;DHT22;57425;51.616;6.680;2024-03-22T14:28:54;13.30;79.60
70068;DHT22;57425;51.616;6.680;2024-03-22T14:31:19;13.40;79.70
70068;DHT22;57425;51.616;6.680;2024-03-22T14:33:45;13.40;79.70
70068;DHT22;57425;51.616;6.680;2024-03-22T14:36:11;13.40;79.70
70068;DHT22;57425;51.616;6.680;2024-03-22T14:38:38;13.40;79.70
70068;DHT22;57425;51.616;6.680;2024-03-22T14:41:04;13.40;79.70
70068;DHT22;57425;51.616;6.680;2024-03-22T14:43:30;13.40;79.80
70068;DHT22;57425;51.616;6.680;2024-03-22T14:46:01;13.40;79.80
70068;DHT22;57425;51.616;6.680;2024-03-22T14:48:30;13.40;79.80
70068;DHT22;57425;51.616;6.680;2024-03-22T14:50:55;13.40;79.80
70068;DHT22;57425;51.616;6.680;2024-03-22T14:53:21;13.40;80.40
70068;DHT22;57425;51.616;6.680;2024-03-22T14:56:01;13.40;79.80
70068;DHT22;57425;51.616;6.680;2024-03-22T14:58:30;13.40;79.80
70068;DHT22;57425;51.616;6.680;2024-03-22T15:01:04;13.40;79.90
70068;DHT22;57425;51.616;6.680;2024-03-22T15:03:34;13.40;79.80
70068;DHT22;57425;51.616;6.680;2024-03-22T15:06:00;13.40;79.90
70068;DHT22;57425;51.616;6.680;2024-03-22T15:08:26;13.40;79.90
70068;DHT22;57425;51.616;6.680;2024-03-22T15:10:54;13.40;79.90
70068;DHT22;57425;51.616;6.680;2024-03-22T15:13:21;13.40;79.90
70068;DHT22;57425;51.616;6.680;2024-03-22T15:15:56;13.40;79.90
70068;DHT22;57425;51.616;6.680;2024-03-22T15:18:23;13.40;79.90
70068;DHT22;57425;51.616;6.680;2024-03-22T15:20:49;13.40;80.00
70068;DHT22;57425;51.616;6.680;2024-03-22T15:23:15;13.40;80.00
70068;DHT22;57425;51.616;6.680;2024-03-22T15:25:42;13.30;79.90